Time;durP1;ratioP1;P1;durP2;ratioP2;P2;SDS_P1;SDS_P2;PMS_P1;PMS_P2;Temp;Humidity;BMP_temperature;BMP_pressure;BME280_temperature;BME280_humidity;BME280_pressure;Samples;Min_cycle;Max_cycle;Signal;HPM_P1;HPM_P2
2023/04/28 00:00:56;;;;;;;6.78;4.03;;;9.70;90.90;;;;;;5055520;28;20028;-76
2023/04/28 00:03:22;;;;;;;6.47;3.65;;;9.70;91.20;;;;;;5053486;28;20021;-76
2023/04/28 00:05:48;;;;;;;8.02;4.57;;;9.70;91.30;;;;;;5055517;28;20102;-76
2023/04/28 00:08:13;;;;;;;5.88;3.47;;;9.60;91.40;;;;;;5053565;28;20032;-76
2023/04/28 00:10:39;;;;;;;7.35;3.80;;;9.60;91.50;;;;;;5055202;28;20104;-74
2023/04/28 00:13:05;;;;;;;5.30;3.70;;;9.60;91.70;;;;;;5055223;28;20021;-75
2023/04/28 00:15:30;;;;;;;8.80;4.53;;;9.60;91.90;;;;;;5054367;28;20135;-75
2023/04/28 00:17:56;;;;;;;8.60;4.30;;;9.60;92.10;;;;;;5054905;28;20064;-74
2023/04/28 00:20:21;;;;;;;8.27;4.30;;;9.60;92.30;;;;;;5054626;28;20025;-75
2023/04/28 00:22:48;;;;;;;7.22;4.47;;;9.50;92.50;;;;;;5053680;28;20435;-75
2023/04/28 00:25:13;;;;;;;8.02;4.40;;;9.50;92.50;;;;;;5054767;28;20103;-75
2023/04/28 00:27:39;;;;;;;7.40;4.03;;;9.50;92.70;;;;;;5054992;28;20446;-75
2023/04/28 00:30:05;;;;;;;9.18;4.53;;;9.50;92.80;;;;;;5054922;28;20031;-75
2023/04/28 00:32:31;;;;;;;8.45;5.05;;;9.50;93.00;;;;;;5053893;28;20036;-75
2023/04/28 00:34:56;;;;;;;7.22;4.53;;;9.60;93.10;;;;;;5054892;28;20014;-75
2023/04/28 00:37:22;;;;;;;9.48;4.28;;;9.50;93.20;;;;;;5054050;28;20033;-75
2023/04/28 00:39:47;;;;;;;10.98;3.95;;;9.50;93.30;;;;;;5054747;28;20033;-75
2023/04/28 00:42:14;;;;;;;9.32;4.55;;;9.50;93.50;;;;;;5054151;28;20037;-75
2023/04/28 00:44:40;;;;;;;6.63;4.18;;;9.50;93.70;;;;;;5054573;28;20024;-75
2023/04/28 00:47:07;;;;;;;8.60;3.88;;;9.50;93.70;;;;;;5054038;28;20021;-75
2023/04/28 00:49:33;;;;;;;6.18;3.58;;;9.50;93.80;;;;;;5054241;28;20036;-75
2023/04/28 00:52:04;;;;;;;7.32;3.90;;;9.60;93.80;;;;;;5054475;28;20524;-75
2023/04/28 00:54:31;;;;;;;9.57;4.15;;;9.60;93.90;;;;;;5053960;28;20031;-75
2023/04/28 00:56:56;;;;;;;8.95;4.07;;;9.60;93.90;;;;;;5053108;28;20385;-75
2023/04/28 00:59:22;;;;;;;8.98;4.32;;;9.60;93.90;;;;;;5053975;28;20025;-75
2023/04/28 01:01:48;;;;;;;7.18;4.22;;;9.60;93.90;;;;;;5053809;28;20028;-75
2023/04/28 01:04:18;;;;;;;6.93;4.13;;;9.60;94.00;;;;;;5053897;28;20087;-75
2023/04/28 01:06:45;;;;;;;8.65;4.25;;;9.60;94.10;;;;;;5054371;28;20025;-74
2023/04/28 01:09:10;;;;;;;7.30;4.10;;;9.70;94.20;;;;;;5053947;28;20036;-75
2023/04/28 01:11:36;;;;;;;9.50;4.07;;;9.60;94.40;;;;;;5052613;28;20029;-75
2023/04/28 01:14:02;;;;;;;6.70;3.70;;;9.60;94.30;;;;;;5053942;28;20412;-74
2023/04/28 01:16:28;;;;;;;9.07;4.32;;;9.70;94.30;;;;;;5053526;28;20025;-75
2023/04/28 01:18:54;;;;;;;7.72;4.25;;;9.70;94.30;;;;;;5053872;28;20061;-74
2023/04/28 01:21:31;;;;;;;8.68;4.80;;;9.70;94.50;;;;;;5052440;28;20059;-75
2023/04/28 01:23:57;;;;;;;5.85;3.97;;;9.70;94.20;;;;;;5052720;28;20040;-75
2023/04/28 01:26:23;;;;;;;10.27;3.97;;;9.70;94.30;;;;;;5053342;28;20025;-75
2023/04/28 01:28:48;;;;;;;7.63;3.90;;;9.70;94.30;;;;;;5053603;28;20492;-75
2023/04/28 01:31:14;;;;;;;9.98;4.15;;;9.70;94.20;;;;;;5053299;28;20076;-75
2023/04/28 01:33:39;;;;;;;8.15;3.83;;;9.70;94.30;;;;;;5053730;28;20029;-75
2023/04/28 01:36:05;;;;;;;12.23;4.25;;;9.70;94.50;;;;;;5053657;28;20405;-75
2023/04/28 01:38:31;;;;;;;6.75;4.07;;;9.70;94.40;;;;;;5053229;28;20041;-74
2023/04/28 01:40:57;;;;;;;8.82;4.45;;;9.70;94.50;;;;;;5053190;28;20421;-75
2023/04/28 01:43:23;;;;;;;7.18;3.95;;;9.60;94.60;;;;;;5052331;28;20472;-75
2023/04/28 01:45:48;;;;;;;8.63;4.20;;;9.60;94.80;;;;;;5053436;28;20056;-74
2023/04/28 01:48:14;;;;;;;6.72;3.97;;;9.60;95.10;;;;;;5052702;28;20025;-75
2023/04/28 01:50:39;;;;;;;7.80;4.60;;;9.50;95.30;;;;;;5053275;28;20021;-75
2023/04/28 01:53:05;;;;;;;8.10;4.38;;;9.50;95.80;;;;;;5053252;28;20033;-75
2023/04/28 01:55:30;;;;;;;9.50;4.63;;;9.40;96.20;;;;;;5052955;28;20029;-75
2023/04/28 01:57:59;;;;;;;9.18;4.43;;;9.40;96.60;;;;;;5053227;28;20040;-74
2023/04/28 02:00:26;;;;;;;9.48;4.28;;;9.40;97.00;;;;;;5052629;28;20028;-74
2023/04/28 02:02:51;;;;;;;10.35;4.65;;;9.30;97.20;;;;;;5053182;28;20110;-74
2023/04/28 02:05:17;;;;;;;10.10;4.60;;;9.30;97.60;;;;;;5052479;28;20067;-74
2023/04/28 02:07:42;;;;;;;9.10;4.90;;;9.30;98.00;;;;;;5053032;28;20426;-75
2023/04/28 02:10:08;;;;;;;7.75;4.22;;;9.20;98.20;;;;;;5052622;28;20477;-74
2023/04/28 02:12:34;;;;;;;9.48;5.22;;;9.20;98.50;;;;;;5052921;28;20047;-75
2023/04/28 02:14:59;;;;;;;9.90;4.80;;;9.20;99.00;;;;;;5052458;28;20492;-75
2023/04/28 02:17:25;;;;;;;8.57;5.05;;;9.20;99.40;;;;;;5052442;28;20420;-75
2023/04/28 02:19:55;;;;;;;6.90;4.55;;;9.20;99.70;;;;;;5052181;28;20028;-75
2023/04/28 02:22:21;;;;;;;7.55;4.43;;;9.10;99.80;;;;;;5052447;28;20036;-75
2023/04/28 02:24:46;;;;;;;12.02;5.00;;;9.10;99.90;;;;;;5052732;28;20021;-75
2023/04/28 02:27:12;;;;;;;7.78;4.38;;;9.10;99.90;;;;;;5052514;28;20032;-75
2023/04/28 02:29:37;;;;;;;9.55;5.30;;;9.10;99.90;;;;;;5052833;28;20041;-75
2023/04/28 02:32:03;;;;;;;10.90;5.60;;;9.10;99.90;;;;;;5052657;28;20025;-75
2023/04/28 02:34:29;;;;;;;9.80;4.93;;;9.00;99.90;;;;;;5050837;28;20071;-75
2023/04/28 02:36:54;;;;;;;7.72;4.65;;;9.00;99.90;;;;;;5052366;28;20033;-75
2023/04/28 02:39:21;;;;;;;9.57;4.95;;;9.00;99.90;;;;;;5050533;28;20602;-75
2023/04/28 02:41:47;;;;;;;8.23;4.13;;;9.00;99.90;;;;;;5053027;28;20025;-75
2023/04/28 02:44:12;;;;;;;9.98;5.40;;;9.00;99.90;;;;;;5051574;28;20077;-74
2023/04/28 02:46:38;;;;;;;11.70;4.70;;;9.00;99.90;;;;;;5035045;28;20034;-74
2023/04/28 02:49:03;;;;;;;10.80;5.30;;;9.00;99.90;;;;;;5032282;28;20025;-75
2023/04/28 02:51:30;;;;;;;8.38;5.35;;;9.00;99.90;;;;;;5049872;28;20025;-74
2023/04/28 02:53:55;;;;;;;8.52;4.75;;;9.00;99.90;;;;;;5052217;28;20500;-75
2023/04/28 02:56:21;;;;;;;8.23;5.13;;;9.00;99.90;;;;;;5051749;28;20029;-75
2023/04/28 02:58:46;;;;;;;11.02;5.50;;;9.00;99.90;;;;;;5052135;28;20033;-74
2023/04/28 03:01:12;;;;;;;14.02;5.13;;;9.00;99.90;;;;;;5051601;28;20025;-75
2023/04/28 03:03:37;;;;;;;8.23;4.78;;;9.00;99.90;;;;;;5051923;28;20032;-74
2023/04/28 03:06:03;;;;;;;8.70;4.97;;;9.10;99.90;;;;;;5051870;28;20087;-75
2023/04/28 03:08:28;;;;;;;10.20;5.53;;;9.00;99.90;;;;;;5051583;28;20033;-75
2023/04/28 03:10:54;;;;;;;14.60;5.68;;;9.10;99.90;;;;;;5050452;28;20024;-75
2023/04/28 03:13:20;;;;;;;10.18;5.40;;;9.10;99.90;;;;;;5051637;28;20033;-75
2023/04/28 03:15:45;;;;;;;9.63;5.07;;;9.10;99.90;;;;;;5051321;28;20033;-74
2023/04/28 03:18:11;;;;;;;10.52;5.20;;;9.10;99.90;;;;;;5051753;28;20461;-74
2023/04/28 03:20:36;;;;;;;11.23;5.35;;;9.10;99.90;;;;;;5051539;28;20469;-74
2023/04/28 03:23:02;;;;;;;10.90;5.15;;;9.10;99.90;;;;;;5051729;28;20108;-74
2023/04/28 03:25:28;;;;;;;11.85;5.47;;;9.20;99.90;;;;;;5050990;28;20479;-75
2023/04/28 03:27:53;;;;;;;7.75;4.85;;;9.20;99.90;;;;;;5051619;28;20021;-74
2023/04/28 03:30:19;;;;;;;12.57;5.50;;;9.20;99.90;;;;;;5051262;28;20044;-75
2023/04/28 03:32:45;;;;;;;11.88;6.18;;;9.10;99.90;;;;;;5050616;28;20029;-74
2023/04/28 03:35:10;;;;;;;8.20;5.15;;;9.10;99.90;;;;;;5051338;28;20040;-75
2023/04/28 03:37:36;;;;;;;11.77;6.10;;;9.10;99.90;;;;;;5051524;28;20465;-75
2023/04/28 03:40:02;;;;;;;10.68;5.85;;;9.10;99.90;;;;;;5051159;28;20028;-75
2023/04/28 03:42:28;;;;;;;11.98;5.82;;;9.20;99.90;;;;;;5049783;28;20029;-75
2023/04/28 03:44:53;;;;;;;11.60;5.68;;;9.10;99.90;;;;;;5049853;28;20089;-75
2023/04/28 03:47:19;;;;;;;10.15;5.65;;;9.10;99.90;;;;;;5050976;28;20025;-75
2023/04/28 03:49:44;;;;;;;8.00;5.10;;;9.10;99.90;;;;;;5051374;28;20115;-75
2023/04/28 03:52:10;;;;;;;9.65;5.28;;;9.10;99.90;;;;;;5050855;28;20412;-74
2023/04/28 03:54:35;;;;;;;13.27;5.93;;;9.10;99.90;;;;;;5051183;28;20075;-75
2023/04/28 03:57:01;;;;;;;10.43;5.60;;;9.10;99.90;;;;;;5050027;28;20040;-75
2023/04/28 03:59:27;;;;;;;9.05;5.60;;;9.10;99.90;;;;;;5050647;28;20444;-75
2023/04/28 04:01:52;;;;;;;13.05;5.88;;;9.10;99.90;;;;;;5051172;28;20103;-75
2023/04/28 04:04:18;;;;;;;11.73;6.70;;;9.10;99.90;;;;;;5050561;28;20059;-75
2023/04/28 04:06:43;;;;;;;8.38;5.10;;;9.10;99.90;;;;;;5051251;28;20052;-75
2023/04/28 04:09:09;;;;;;;10.32;5.22;;;9.10;99.90;;;;;;5050704;28;20139;-74
2023/04/28 04:11:34;;;;;;;13.35;6.75;;;9.10;99.90;;;;;;5051345;28;20021;-75
2023/04/28 04:14:00;;;;;;;9.68;6.00;;;9.10;99.90;;;;;;5049082;28;20405;-75
2023/04/28 04:16:26;;;;;;;12.25;6.65;;;9.10;99.90;;;;;;5050632;28;20025;-75
2023/04/28 04:18:51;;;;;;;13.13;7.18;;;9.10;99.90;;;;;;5051133;28;20476;-74
2023/04/28 04:21:17;;;;;;;11.48;6.03;;;9.10;99.90;;;;;;5050689;28;20025;-75
2023/04/28 04:23:42;;;;;;;11.60;5.65;;;9.10;99.90;;;;;;5051042;28;20037;-75
2023/04/28 04:26:08;;;;;;;8.98;6.00;;;9.10;99.90;;;;;;5050656;28;20536;-75
2023/04/28 04:28:33;;;;;;;14.32;7.00;;;9.10;99.90;;;;;;5050864;28;20388;-75
2023/04/28 04:30:59;;;;;;;13.93;7.63;;;9.20;99.90;;;;;;5051084;28;20472;-75
2023/04/28 04:33:24;;;;;;;9.10;6.40;;;9.20;99.90;;;;;;5050672;28;20036;-75
2023/04/28 04:35:50;;;;;;;9.48;6.68;;;9.20;99.90;;;;;;5050879;28;20362;-75
2023/04/28 04:38:15;;;;;;;13.38;6.55;;;9.20;99.90;;;;;;5049206;28;20037;-75
2023/04/28 04:40:41;;;;;;;10.82;6.68;;;9.20;99.90;;;;;;5051150;28;20025;-74
2023/04/28 04:43:06;;;;;;;11.38;7.22;;;9.30;99.90;;;;;;5052034;28;20027;-74
2023/04/28 04:45:32;;;;;;;11.10;6.93;;;9.30;99.90;;;;;;5054420;28;20052;-75
2023/04/28 04:47:58;;;;;;;15.15;7.88;;;9.30;99.90;;;;;;5054422;28;20377;-75
2023/04/28 04:50:24;;;;;;;13.48;7.47;;;9.30;99.90;;;;;;5054122;28;20025;-74
2023/04/28 04:52:49;;;;;;;14.70;7.20;;;9.30;99.90;;;;;;5053103;28;20025;-75
2023/04/28 04:55:15;;;;;;;12.45;7.65;;;9.30;99.90;;;;;;5053963;28;20381;-75
2023/04/28 04:57:41;;;;;;;11.55;8.02;;;9.30;99.90;;;;;;5054085;28;20044;-75
2023/04/28 05:00:07;;;;;;;14.77;8.05;;;9.30;99.90;;;;;;5054267;28;20021;-75
2023/04/28 05:02:33;;;;;;;16.48;8.40;;;9.40;99.90;;;;;;5054153;28;20492;-75
2023/04/28 05:04:58;;;;;;;11.85;7.75;;;9.40;99.90;;;;;;5054417;28;20021;-75
2023/04/28 05:07:25;;;;;;;13.68;8.43;;;9.40;99.90;;;;;;5053790;28;20079;-75
2023/04/28 05:09:51;;;;;;;14.98;7.80;;;9.40;99.90;;;;;;5053995;28;20071;-75
2023/04/28 05:12:16;;;;;;;21.13;8.65;;;9.40;99.90;;;;;;5053825;28;20053;-75
2023/04/28 05:14:42;;;;;;;14.27;8.95;;;9.50;99.90;;;;;;5052289;28;20049;-75
2023/04/28 05:17:07;;;;;;;15.43;9.15;;;9.50;99.90;;;;;;5053510;28;20025;-75
2023/04/28 05:19:33;;;;;;;19.92;9.80;;;9.50;99.90;;;;;;5053915;28;20024;-75
2023/04/28 05:21:59;;;;;;;16.60;10.13;;;9.60;99.90;;;;;;5053972;28;20032;-75
2023/04/28 05:24:25;;;;;;;18.40;9.45;;;9.60;99.90;;;;;;5053382;28;20380;-75
2023/04/28 05:26:51;;;;;;;16.85;10.10;;;9.60;99.90;;;;;;5053825;28;20033;-75
2023/04/28 05:29:17;;;;;;;16.58;9.20;;;9.70;99.90;;;;;;5053412;28;20040;-76
2023/04/28 05:31:42;;;;;;;16.38;9.45;;;9.70;99.90;;;;;;5053485;28;20021;-75
2023/04/28 05:34:08;;;;;;;16.25;9.57;;;9.80;99.90;;;;;;5052570;28;20388;-76
2023/04/28 05:36:33;;;;;;;17.08;9.65;;;9.80;99.90;;;;;;5053853;28;20384;-75
2023/04/28 05:38:59;;;;;;;15.15;9.40;;;9.90;99.90;;;;;;5053542;28;20037;-75
2023/04/28 05:41:25;;;;;;;17.38;10.13;;;9.90;99.90;;;;;;5052733;28;20021;-74
2023/04/28 05:43:50;;;;;;;15.90;9.65;;;10.00;99.90;;;;;;5053014;28;20037;-74
2023/04/28 05:46:16;;;;;;;18.23;10.35;;;10.00;99.90;;;;;;5053100;28;20031;-75
2023/04/28 05:48:42;;;;;;;20.27;11.13;;;10.10;99.90;;;;;;5053376;28;20048;-76
2023/04/28 05:51:07;;;;;;;18.42;11.52;;;10.20;99.90;;;;;;5052977;28;20016;-76
2023/04/28 05:53:33;;;;;;;16.92;11.38;;;10.20;99.90;;;;;;5053138;28;20047;-76
2023/04/28 05:55:58;;;;;;;18.50;10.70;;;10.20;99.90;;;;;;5052545;28;20023;-75
2023/04/28 05:58:24;;;;;;;19.10;11.30;;;10.30;99.90;;;;;;5052396;28;20029;-76
2023/04/28 06:00:50;;;;;;;18.38;12.60;;;10.30;99.90;;;;;;5052980;28;20021;-76
2023/04/28 06:03:17;;;;;;;17.85;12.13;;;10.30;99.90;;;;;;5051312;28;20024;-76
2023/04/28 06:05:43;;;;;;;23.70;12.93;;;10.30;99.90;;;;;;5051818;28;20021;-76
2023/04/28 06:08:09;;;;;;;21.98;12.52;;;10.40;99.90;;;;;;5052600;28;20025;-75
2023/04/28 06:10:34;;;;;;;21.40;13.32;;;10.40;99.90;;;;;;5052784;28;20079;-75
2023/04/28 06:13:01;;;;;;;21.92;13.10;;;10.50;99.90;;;;;;5053273;28;20037;-76
2023/04/28 06:15:26;;;;;;;19.83;12.38;;;10.50;99.90;;;;;;5052024;28;20505;-76
2023/04/28 06:17:52;;;;;;;26.10;14.13;;;10.60;99.90;;;;;;5052875;28;20041;-76
2023/04/28 06:20:19;;;;;;;22.15;14.55;;;10.60;99.90;;;;;;5052440;28;20465;-75
2023/04/28 06:22:45;;;;;;;23.13;13.70;;;10.70;99.90;;;;;;5052741;28;20021;-75
2023/04/28 06:25:10;;;;;;;25.38;14.48;;;10.70;99.90;;;;;;5052128;28;20017;-75
2023/04/28 06:27:36;;;;;;;23.27;14.23;;;10.70;99.90;;;;;;5052690;28;20030;-75
2023/04/28 06:30:01;;;;;;;21.38;14.90;;;10.80;99.90;;;;;;5052375;28;20072;-75
2023/04/28 06:32:27;;;;;;;20.00;14.07;;;10.80;99.90;;;;;;5052389;28;20386;-75
2023/04/28 06:34:53;;;;;;;20.48;14.93;;;10.90;99.90;;;;;;5052614;28;20036;-75
2023/04/28 06:37:18;;;;;;;23.85;15.65;;;10.90;99.90;;;;;;5052013;28;20114;-75
2023/04/28 06:39:44;;;;;;;23.10;14.90;;;11.00;99.90;;;;;;5052131;28;20029;-75
2023/04/28 06:42:09;;;;;;;21.67;15.73;;;11.10;99.90;;;;;;5051976;28;20021;-75
2023/04/28 06:44:35;;;;;;;22.92;15.52;;;11.10;99.90;;;;;;5050827;28;20025;-76
2023/04/28 06:47:00;;;;;;;26.08;16.40;;;11.20;99.90;;;;;;5052018;28;20519;-76
2023/04/28 06:49:26;;;;;;;22.98;16.77;;;11.30;99.90;;;;;;5052030;28;20489;-76
2023/04/28 06:51:52;;;;;;;24.30;16.48;;;11.40;99.90;;;;;;5052402;28;20024;-76
2023/04/28 06:54:17;;;;;;;24.20;15.85;;;11.50;99.90;;;;;;5050401;28;20021;-75
2023/04/28 06:56:43;;;;;;;25.05;16.02;;;11.50;99.90;;;;;;5051805;28;20021;-75
2023/04/28 06:59:09;;;;;;;22.42;15.63;;;11.60;99.90;;;;;;5051083;28;20042;-76
2023/04/28 07:01:34;;;;;;;22.00;15.00;;;11.80;99.90;;;;;;5051477;28;20025;-75
2023/04/28 07:04:00;;;;;;;25.33;16.08;;;11.90;99.90;;;;;;5051991;28;20166;-75
2023/04/28 07:06:26;;;;;;;21.52;14.75;;;11.90;99.90;;;;;;5034004;28;20064;-76
2023/04/28 07:08:52;;;;;;;20.90;14.77;;;11.90;99.90;;;;;;5036412;28;20108;-76
2023/04/28 07:11:22;;;;;;;21.17;15.50;;;12.00;99.90;;;;;;5051669;28;20490;-76
2023/04/28 07:13:50;;;;;;;22.15;14.45;;;12.10;99.90;;;;;;5050122;28;20043;-76
2023/04/28 07:16:16;;;;;;;31.02;16.23;;;12.10;99.90;;;;;;5050023;28;20033;-76
2023/04/28 07:18:42;;;;;;;17.30;13.23;;;12.10;99.90;;;;;;5051753;28;20033;-75
2023/04/28 07:21:07;;;;;;;19.65;14.07;;;12.20;99.90;;;;;;5050194;28;20192;-75
2023/04/28 07:23:33;;;;;;;21.80;13.63;;;12.30;99.90;;;;;;5050368;28;20040;-75
2023/04/28 07:25:59;;;;;;;22.02;14.05;;;12.20;99.90;;;;;;5051480;28;20032;-75
2023/04/28 07:28:25;;;;;;;22.23;14.77;;;12.30;99.90;;;;;;5051070;28;20031;-76
2023/04/28 07:30:50;;;;;;;21.38;14.35;;;12.30;99.90;;;;;;5051896;28;20025;-75
2023/04/28 07:33:16;;;;;;;19.50;14.20;;;12.30;99.90;;;;;;5050906;28;20029;-75
2023/04/28 07:35:42;;;;;;;22.27;15.02;;;12.20;99.90;;;;;;5051563;28;20082;-75
2023/04/28 07:38:07;;;;;;;24.95;14.48;;;12.30;99.90;;;;;;5049828;28;20033;-76
2023/04/28 07:40:33;;;;;;;24.08;14.40;;;12.40;99.90;;;;;;5051447;28;20031;-76
2023/04/28 07:42:58;;;;;;;17.80;13.63;;;12.50;99.90;;;;;;5051186;28;20397;-76
2023/04/28 07:45:25;;;;;;;19.98;13.85;;;12.60;99.90;;;;;;5051201;28;20044;-76
2023/04/28 07:47:50;;;;;;;20.95;13.77;;;12.60;99.90;;;;;;5051341;28;20028;-75
2023/04/28 07:50:16;;;;;;;17.58;12.70;;;12.80;99.90;;;;;;5051147;28;20503;-76
2023/04/28 07:52:42;;;;;;;21.10;14.10;;;12.80;99.90;;;;;;5051806;28;20021;-76
2023/04/28 07:55:08;;;;;;;18.60;12.70;;;12.90;99.90;;;;;;5051047;28;20048;-75
2023/04/28 07:57:34;;;;;;;17.50;13.38;;;13.00;99.90;;;;;;5049886;28;20044;-76
2023/04/28 08:00:00;;;;;;;21.65;13.95;;;13.10;99.90;;;;;;5051135;28;20385;-76
2023/04/28 08:02:26;;;;;;;17.13;13.43;;;13.30;99.90;;;;;;5049588;28;20021;-76
2023/04/28 08:04:51;;;;;;;19.83;13.90;;;13.50;99.90;;;;;;5051211;28;20033;-76
2023/04/28 08:07:17;;;;;;;15.55;11.73;;;13.60;99.90;;;;;;5050733;28;20096;-75
2023/04/28 08:09:47;;;;;;;17.77;12.82;;;13.80;99.90;;;;;;5051133;28;20059;-75
2023/04/28 08:12:13;;;;;;;19.40;12.93;;;14.00;99.90;;;;;;5050741;28;20028;-76
2023/04/28 08:14:39;;;;;;;17.88;11.90;;;14.20;99.90;;;;;;5050863;28;20095;-76
2023/04/28 08:17:04;;;;;;;18.60;12.18;;;14.30;99.90;;;;;;5051099;28;20412;-76
2023/04/28 08:19:30;;;;;;;16.38;12.70;;;14.30;99.90;;;;;;5054617;28;20531;-76
2023/04/28 08:21:55;;;;;;;15.43;12.35;;;14.40;99.90;;;;;;5055114;28;20033;-76
2023/04/28 08:24:21;;;;;;;19.45;12.75;;;14.30;99.90;;;;;;5054994;28;20033;-76
2023/04/28 08:26:46;;;;;;;17.23;13.18;;;14.20;99.90;;;;;;5054771;28;20025;-76
2023/04/28 08:29:12;;;;;;;18.67;12.57;;;14.00;99.90;;;;;;5054239;28;20488;-75
2023/04/28 08:31:37;;;;;;;18.02;13.25;;;13.80;99.90;;;;;;5053596;28;20029;-75
2023/04/28 08:34:03;;;;;;;20.42;14.30;;;13.80;99.90;;;;;;5054888;28;20381;-75
2023/04/28 08:36:31;;;;;;;16.35;12.80;;;13.70;99.90;;;;;;5054205;28;20489;-75
2023/04/28 08:39:02;;;;;;;20.58;15.57;;;13.70;99.90;;;;;;5054686;28;20440;-74
2023/04/28 08:41:31;;;;;;;18.80;14.82;;;13.70;99.90;;;;;;5052698;28;20029;-75
2023/04/28 08:43:57;;;;;;;21.50;14.48;;;13.70;99.90;;;;;;5054608;28;20417;-74
2023/04/28 08:46:26;;;;;;;18.83;14.07;;;13.70;99.90;;;;;;5054335;28;20477;-74
2023/04/28 08:48:59;;;;;;;18.13;13.80;;;13.90;99.90;;;;;;5054693;28;20082;-75
2023/04/28 08:51:32;;;;;;;18.33;15.25;;;14.00;99.90;;;;;;5054028;28;20025;-75
2023/04/28 08:54:00;;;;;;;16.90;12.43;;;14.20;99.90;;;;;;5054524;28;20071;-74
2023/04/28 08:56:30;;;;;;;16.55;13.93;;;14.10;99.90;;;;;;5053950;28;20032;-74
2023/04/28 08:58:57;;;;;;;19.02;14.77;;;14.00;99.90;;;;;;5054416;28;20429;-74
2023/04/28 09:01:22;;;;;;;17.77;13.85;;;14.00;99.90;;;;;;5053782;28;20477;-75
2023/04/28 09:03:48;;;;;;;20.40;14.52;;;13.90;99.90;;;;;;5054339;28;20055;-75
2023/04/28 09:06:13;;;;;;;17.58;14.20;;;13.80;99.90;;;;;;5053942;28;20530;-75
2023/04/28 09:08:39;;;;;;;19.73;13.98;;;13.70;99.90;;;;;;5054452;28;20052;-74
2023/04/28 09:11:07;;;;;;;19.13;14.55;;;13.70;99.90;;;;;;5052694;28;20017;-74
2023/04/28 09:13:33;;;;;;;17.77;15.48;;;13.70;99.90;;;;;;5054170;28;20025;-75
2023/04/28 09:16:00;;;;;;;16.95;15.15;;;13.60;99.90;;;;;;5052659;28;20045;-75
2023/04/28 09:18:26;;;;;;;18.33;14.05;;;13.60;99.90;;;;;;5053518;28;20037;-74
2023/04/28 09:20:51;;;;;;;19.15;15.02;;;13.60;99.90;;;;;;5054491;28;20017;-75
2023/04/28 09:23:19;;;;;;;20.75;16.23;;;13.60;99.90;;;;;;5053648;28;20024;-75
2023/04/28 09:26:14;;;;;;;17.92;14.10;;;13.60;99.90;;;;;;5053868;28;20083;-75
2023/04/28 09:28:40;;;;;;;21.77;16.45;;;13.70;99.90;;;;;;5040044;28;20033;-75
2023/04/28 09:31:21;;;;;;;21.90;15.70;;;13.70;99.90;;;;;;5053340;28;20473;-75
2023/04/28 09:33:57;;;;;;;19.40;14.85;;;13.70;99.90;;;;;;5053771;28;20032;-75
2023/04/28 09:36:29;;;;;;;20.38;14.60;;;13.80;99.90;;;;;;5053290;28;20028;-75
2023/04/28 09:38:58;;;;;;;17.75;15.23;;;13.90;99.90;;;;;;5053508;28;20040;-74
2023/04/28 09:41:35;;;;;;;20.42;15.52;;;14.00;99.90;;;;;;5051764;28;20025;-75
2023/04/28 09:44:29;;;;;;;17.50;15.15;;;14.00;99.90;;;;;;5053458;28;20040;-75
2023/04/28 09:46:55;;;;;;;16.55;13.63;;;14.10;99.90;;;;;;5035310;28;20029;-75
2023/04/28 09:49:21;;;;;;;16.27;13.40;;;14.10;99.90;;;;;;5052936;28;20481;-75
2023/04/28 09:51:46;;;;;;;16.38;14.07;;;14.10;99.90;;;;;;5053364;28;20456;-75
2023/04/28 09:54:12;;;;;;;22.27;16.13;;;14.10;99.90;;;;;;5051572;28;20346;-75
2023/04/28 09:56:41;;;;;;;18.70;14.93;;;14.10;99.90;;;;;;5054111;28;20377;-75
2023/04/28 09:59:06;;;;;;;16.95;14.55;;;14.20;99.90;;;;;;5052951;28;20037;-74
2023/04/28 10:01:43;;;;;;;18.38;14.20;;;14.30;99.90;;;;;;5052888;28;20027;-75
2023/04/28 10:04:10;;;;;;;15.23;13.43;;;14.30;99.90;;;;;;5052694;28;20033;-74
2023/04/28 10:06:36;;;;;;;13.00;11.30;;;14.30;99.90;;;;;;5053316;28;20025;-74
2023/04/28 10:09:02;;;;;;;15.00;12.02;;;14.30;99.90;;;;;;5053091;28;20029;-75
2023/04/28 10:11:29;;;;;;;15.10;11.90;;;14.30;99.90;;;;;;5052231;28;20036;-75
2023/04/28 10:13:55;;;;;;;14.88;12.27;;;14.40;99.90;;;;;;5052666;28;20021;-75
2023/04/28 10:16:22;;;;;;;14.65;13.07;;;14.40;99.90;;;;;;5052531;28;20040;-75
2023/04/28 10:18:48;;;;;;;15.35;12.82;;;14.50;99.90;;;;;;5052733;28;20064;-75
2023/04/28 10:21:19;;;;;;;15.02;13.02;;;14.50;99.90;;;;;;5052390;28;20027;-75
2023/04/28 10:24:06;;;;;;;16.35;12.20;;;14.60;99.90;;;;;;5052760;28;20044;-75
2023/04/28 10:27:04;;;;;;;15.85;12.20;;;14.60;99.90;;;;;;5052275;28;20029;-75
2023/04/28 10:29:32;;;;;;;13.25;11.10;;;14.70;99.90;;;;;;5052226;28;20491;-75
2023/04/28 10:32:17;;;;;;;14.77;11.45;;;14.80;99.90;;;;;;5052577;28;20021;-75
2023/04/28 10:34:44;;;;;;;15.07;12.23;;;14.90;99.90;;;;;;5052271;28;20119;-75
2023/04/28 10:37:09;;;;;;;14.63;11.90;;;15.00;99.90;;;;;;5052073;28;20362;-75
2023/04/28 10:39:35;;;;;;;16.08;12.90;;;15.10;99.90;;;;;;5052420;28;20118;-75
2023/04/28 10:42:02;;;;;;;16.38;12.27;;;15.10;99.90;;;;;;5052278;28;20036;-75
2023/04/28 10:44:30;;;;;;;16.13;13.15;;;15.00;99.90;;;;;;5052024;28;20028;-75
2023/04/28 10:47:08;;;;;;;17.13;13.95;;;15.00;99.90;;;;;;5052229;28;20492;-75
2023/04/28 10:49:56;;;;;;;17.38;14.18;;;14.90;99.90;;;;;;5052278;28;20057;-75
2023/04/28 10:52:47;;;;;;;16.23;13.35;;;14.90;99.90;;;;;;5051815;28;20032;-75
2023/04/28 10:55:33;;;;;;;18.48;14.50;;;14.90;99.90;;;;;;5051721;28;20469;-75
2023/04/28 10:58:36;;;;;;;18.35;14.30;;;15.00;99.90;;;;;;5052107;28;20040;-75
2023/04/28 11:01:20;;;;;;;;;;;14.90;99.90;;;;;;5052899;28;20033;-75
2023/04/28 11:06:24;;;;;;;17.80;14.63;;;14.70;99.90;;;;;;5051899;28;20102;-75
2023/04/28 11:09:11;;;;;;;18.25;14.90;;;14.70;99.90;;;;;;5051833;28;20025;-75
2023/04/28 11:11:38;;;;;;;18.42;14.35;;;14.80;99.90;;;;;;5040492;28;20039;-75
2023/04/28 11:14:16;;;;;;;19.08;15.13;;;14.70;99.90;;;;;;5051787;28;20392;-76
2023/04/28 11:16:58;;;;;;;21.63;16.05;;;14.70;99.90;;;;;;5050521;28;20381;-75
2023/04/28 11:19:39;;;;;;;24.35;17.35;;;14.80;99.90;;;;;;5049879;28;20071;-75
2023/04/28 11:22:18;;;;;;;24.08;17.10;;;14.90;99.90;;;;;;5052050;28;20055;-75
2023/04/28 11:25:00;;;;;;;23.42;17.05;;;14.90;99.90;;;;;;5051423;28;20061;-76
2023/04/28 11:27:31;;;;;;;22.13;16.33;;;14.90;99.90;;;;;;5050311;28;20087;-75
2023/04/28 11:29:57;;;;;;;21.63;16.90;;;14.80;99.90;;;;;;5051742;28;20259;-75
2023/04/28 11:32:32;;;;;;;22.33;16.55;;;14.80;99.90;;;;;;5049635;28;20032;-75
2023/04/28 11:34:57;;;;;;;20.20;15.88;;;14.70;99.90;;;;;;5051629;28;20028;-75
2023/04/28 11:37:23;;;;;;;21.63;16.50;;;14.60;99.90;;;;;;5049472;28;20143;-75
2023/04/28 11:39:49;;;;;;;23.23;17.52;;;14.60;99.90;;;;;;5051589;28;20032;-76
2023/04/28 11:42:16;;;;;;;23.95;18.33;;;14.50;99.90;;;;;;5051129;28;20056;-75
2023/04/28 11:44:49;;;;;;;23.02;18.50;;;14.50;99.90;;;;;;5051548;28;20033;-75
2023/04/28 11:47:14;;;;;;;29.33;19.67;;;14.60;99.90;;;;;;5050858;28;20079;-75
2023/04/28 11:49:43;;;;;;;27.50;18.92;;;14.50;99.90;;;;;;5051397;28;20025;-75
2023/04/28 11:52:10;;;;;;;28.05;19.38;;;14.50;99.90;;;;;;5049884;28;20436;-75
2023/04/28 11:54:36;;;;;;;28.77;18.50;;;14.50;99.90;;;;;;5050016;28;20060;-75
2023/04/28 11:57:03;;;;;;;23.02;17.88;;;14.50;99.90;;;;;;5051350;28;20021;-75
2023/04/28 11:59:35;;;;;;;25.42;17.85;;;14.50;99.90;;;;;;5050781;28;20059;-75
2023/04/28 12:02:02;;;;;;;25.07;16.70;;;14.50;99.90;;;;;;5051248;28;20125;-75
2023/04/28 12:04:39;;;;;;;22.08;16.55;;;14.40;99.90;;;;;;5050576;28;20029;-75
2023/04/28 12:07:13;;;;;;;26.15;17.77;;;14.40;99.90;;;;;;5051239;28;20107;-75
2023/04/28 12:09:40;;;;;;;23.60;17.83;;;14.40;99.90;;;;;;5051174;28;20021;-75
2023/04/28 12:12:08;;;;;;;24.67;17.98;;;14.40;99.90;;;;;;5051259;28;20104;-75
2023/04/28 12:14:54;;;;;;;23.52;16.60;;;14.30;99.90;;;;;;5051120;28;20397;-74
2023/04/28 12:17:27;;;;;;;21.27;16.58;;;14.30;99.90;;;;;;5050615;28;20397;-74
2023/04/28 12:19:53;;;;;;;;;;;14.30;99.90;;;;;;5051421;28;20047;-74
2023/04/28 12:22:18;;;;;;;16.65;12.77;;;14.30;99.90;;;;;;5050612;28;19905;-74
2023/04/28 12:24:45;;;;;;;15.93;13.23;;;14.30;99.90;;;;;;5051076;28;20033;-75
2023/04/28 12:27:23;;;;;;;17.52;13.60;;;14.30;99.90;;;;;;5050468;28;20029;-74
2023/04/28 12:29:49;;;;;;;20.17;13.90;;;14.40;99.90;;;;;;5050842;28;20079;-74
2023/04/28 12:32:16;;;;;;;18.38;13.38;;;14.30;99.90;;;;;;5050553;28;20033;-74
2023/04/28 12:34:43;;;;;;;17.23;12.20;;;14.30;99.90;;;;;;5049443;28;20148;-74
2023/04/28 12:37:09;;;;;;;17.50;12.25;;;14.30;99.90;;;;;;5050551;28;20074;-75
2023/04/28 12:39:35;;;;;;;15.07;11.68;;;14.20;99.90;;;;;;5050885;28;20032;-74
2023/04/28 12:42:01;;;;;;;12.90;9.82;;;14.10;99.90;;;;;;5050653;28;20047;-74